Main page
METAR-TAF:

METAR-TAF

Airports :

Guaratinguetá, São Paulo, Brazil

latitude: 22-47S, longitude: 045-12W, elevation: 537 m

Current weather observation

The report was made 4 hours and 4 minutes ago, at 23:00 UTC
Wind 4 kt from the North
Temperature 18°C
Humidity 83%
Pressure 1020 hPa
Visibility 10 km or more
no clouds below 1500 m and no cumulonimbus

METAR: SBGW 232300Z 01004KT CAVOK 18/15 Q1020

Time: 00:04 (03:04 UTC)

Forecast

The report was made 12 hours and 4 minutes ago, at 15:00 UTC
Forecast valid from 23 at 18 UTC to 24 at 06 UTC
Wind 8 kt from the East/Northeast
Visibility 10 km or more
Scattered clouds at a height of 3000 ft
Becoming
from 24 at 00 UTC to 24 at 02 UTC
Wind kt from the North
Visibility 10 km or more
no clouds below 1500 m and no cumulonimbus

TAF: SBGW 231500Z 2318/2406 06008KT 9999 SCT030 TX28/2318Z TN18/2406Z BECMG 2400/2402 00000KT CAVOK RMK PDJ

Weather observations and forecasts of more than 4000 airports (METAR and TAF reports).

The available stations are represented by yellow and red dots on the map.

Hover mouse over dot to see the name of the station.

Then click to see weather observations and forecasts.

To change the map : click on the green buttons with a black cross to zoom in, on the green button with a dash to zoom out, or on the green arrows for adjacent maps.


METAR-TAF: